Time;durP1;ratioP1;P1;durP2;ratioP2;P2;SDS_P1;SDS_P2;PMS_P1;PMS_P2;Temp;Humidity;BMP_temperature;BMP_pressure;BME280_temperature;BME280_humidity;BME280_pressure;Samples;Min_cycle;Max_cycle;Signal;HPM_P1;HPM_P2
2022/10/10 00:00:30;;;;;;;21.30;19.13;;;;;;;;;;5033460;28;20206;-72
2022/10/10 00:02:57;;;;;;;19.42;17.50;;;;;;;;;;5032891;28;20231;-71
2022/10/10 00:05:23;;;;;;;19.52;17.70;;;;;;;;;;5030933;28;20961;-71
2022/10/10 00:07:49;;;;;;;20.27;18.27;;;;;;;;;;5031756;28;20291;-72
2022/10/10 00:10:16;;;;;;;20.40;17.98;;;;;;;;;;5033986;28;20256;-71
2022/10/10 00:12:42;;;;;;;20.38;18.27;;;;;;;;;;5034978;28;21002;-70
2022/10/10 00:15:11;;;;;;;20.10;17.92;;;;;;;;;;5027720;28;20322;-71
2022/10/10 00:17:39;;;;;;;20.02;18.02;;;;;;;;;;5028662;28;20202;-70
2022/10/10 00:20:06;;;;;;;19.63;17.65;;;;;;;;;;5027053;28;20221;-71
2022/10/10 00:22:32;;;;;;;20.27;18.35;;;;;;;;;;5029052;28;20260;-70
2022/10/10 00:24:59;;;;;;;19.42;17.15;;;;;;;;;;5031652;28;20201;-72
2022/10/10 00:27:25;;;;;;;20.80;18.73;;;;;;;;;;5035540;28;20202;-71
2022/10/10 00:29:52;;;;;;;20.63;18.23;;;;;;;;;;5035889;28;20202;-71
2022/10/10 00:32:18;;;;;;;20.45;18.23;;;;;;;;;;5036967;28;20315;-71
2022/10/10 00:34:46;;;;;;;19.08;17.08;;;;;;;;;;5038043;28;20230;-71
2022/10/10 00:37:13;;;;;;;19.42;17.52;;;;;;;;;;5030319;28;20234;-70
2022/10/10 00:39:39;;;;;;;19.90;17.75;;;;;;;;;;5033741;28;20286;-71
2022/10/10 00:42:05;;;;;;;18.88;16.95;;;;;;;;;;5038554;28;20732;-71
2022/10/10 00:44:32;;;;;;;18.92;17.17;;;;;;;;;;5038094;28;20471;-71
2022/10/10 00:46:58;;;;;;;18.85;16.90;;;;;;;;;;5037931;28;20206;-71
2022/10/10 00:49:27;;;;;;;20.45;18.33;;;;;;;;;;5038921;28;20868;-71
2022/10/10 00:51:57;;;;;;;19.35;17.25;;;;;;;;;;5033542;28;20803;-71
2022/10/10 00:54:24;;;;;;;21.10;18.25;;;;;;;;;;5033999;28;20206;-70
2022/10/10 00:56:52;;;;;;;21.23;18.45;;;;;;;;;;5041790;28;20210;-71
2022/10/10 00:59:19;;;;;;;20.05;17.90;;;;;;;;;;5040382;28;20797;-71
2022/10/10 01:01:46;;;;;;;22.33;18.17;;;;;;;;;;5039974;28;20681;-70
2022/10/10 01:04:30;;;;;;;20.10;18.02;;;;;;;;;;5041322;28;20299;-71
2022/10/10 01:06:59;;;;;;;21.17;18.20;;;;;;;;;;5041192;28;20253;-71
2022/10/10 01:09:25;;;;;;;21.20;18.15;;;;;;;;;;5039186;28;20938;-73
2022/10/10 01:11:55;;;;;;;24.38;18.70;;;;;;;;;;5041730;28;20271;-71
2022/10/10 01:14:28;;;;;;;21.05;18.55;;;;;;;;;;5041177;28;20299;-71
2022/10/10 01:16:57;;;;;;;22.02;17.83;;;;;;;;;;5042775;28;22027;-71
2022/10/10 01:19:36;;;;;;;21.42;17.88;;;;;;;;;;5037556;28;20807;-70
2022/10/10 01:22:12;;;;;;;19.25;17.45;;;;;;;;;;5033660;28;20206;-70
2022/10/10 01:24:54;;;;;;;20.02;18.02;;;;;;;;;;5040092;28;20198;-71
2022/10/10 01:27:30;;;;;;;19.58;16.67;;;;;;;;;;5038523;28;20205;-71
2022/10/10 01:30:01;;;;;;;21.67;19.55;;;;;;;;;;5041078;28;20663;-71
2022/10/10 01:32:30;;;;;;;20.67;18.58;;;;;;;;;;5039339;28;20319;-70
2022/10/10 01:35:00;;;;;;;20.65;18.45;;;;;;;;;;5037646;28;20195;-70
2022/10/10 01:37:33;;;;;;;17.65;15.98;;;;;;;;;;5035547;28;20685;-71
2022/10/10 01:40:04;;;;;;;18.92;16.95;;;;;;;;;;5037253;28;20286;-72
2022/10/10 01:42:32;;;;;;;21.10;15.70;;;;;;;;;;5041512;28;20230;-72
2022/10/10 01:45:00;;;;;;;16.95;15.18;;;;;;;;;;5042068;28;20270;-71
2022/10/10 01:47:26;;;;;;;17.30;15.60;;;;;;;;;;5042504;28;20210;-72
2022/10/10 01:49:55;;;;;;;19.10;17.30;;;;;;;;;;5040547;28;20255;-71
2022/10/10 01:52:27;;;;;;;17.92;16.17;;;;;;;;;;5040390;28;20225;-71
2022/10/10 01:55:01;;;;;;;18.83;16.80;;;;;;;;;;5042142;28;20206;-72
2022/10/10 01:57:31;;;;;;;18.60;16.58;;;;;;;;;;5042643;28;20573;-71
2022/10/10 02:00:02;;;;;;;19.20;16.55;;;;;;;;;;5039677;28;20214;-71
2022/10/10 02:02:35;;;;;;;21.13;16.80;;;;;;;;;;5040758;28;20703;-71
2022/10/10 02:05:04;;;;;;;18.98;17.00;;;;;;;;;;5042581;28;20271;-71
2022/10/10 02:07:32;;;;;;;18.83;17.05;;;;;;;;;;5040970;28;20228;-71
2022/10/10 02:10:00;;;;;;;18.58;16.67;;;;;;;;;;5039972;28;20206;-72
2022/10/10 02:12:28;;;;;;;19.90;17.88;;;;;;;;;;5042244;28;20245;-72
2022/10/10 02:14:57;;;;;;;22.17;17.15;;;;;;;;;;5043580;28;20209;-71
2022/10/10 02:17:26;;;;;;;22.83;17.83;;;;;;;;;;5042703;28;20209;-72
2022/10/10 02:19:53;;;;;;;19.23;17.42;;;;;;;;;;5038624;28;20267;-72
2022/10/10 02:22:20;;;;;;;24.60;18.08;;;;;;;;;;5041888;28;20920;-71
2022/10/10 02:24:47;;;;;;;24.05;19.40;;;;;;;;;;5040289;28;20319;-72
2022/10/10 02:27:16;;;;;;;22.65;18.73;;;;;;;;;;5041050;28;20287;-72
2022/10/10 02:29:44;;;;;;;20.40;18.27;;;;;;;;;;5040795;28;20299;-72
2022/10/10 02:32:12;;;;;;;20.40;18.25;;;;;;;;;;5043028;28;20326;-72
2022/10/10 02:34:42;;;;;;;21.52;18.25;;;;;;;;;;5041027;28;20210;-71
2022/10/10 02:37:12;;;;;;;19.35;17.33;;;;;;;;;;5039926;28;20230;-71
2022/10/10 02:39:40;;;;;;;20.77;18.73;;;;;;;;;;5039999;28;20207;-72
2022/10/10 02:42:08;;;;;;;26.80;18.85;;;;;;;;;;5042152;28;21797;-72
2022/10/10 02:44:35;;;;;;;23.20;20.35;;;;;;;;;;5040375;28;20210;-72
2022/10/10 02:47:01;;;;;;;24.00;21.48;;;;;;;;;;5043480;28;20228;-73
2022/10/10 02:49:29;;;;;;;24.77;20.40;;;;;;;;;;5038746;28;20285;-72
2022/10/10 02:51:57;;;;;;;24.48;21.95;;;;;;;;;;5040240;28;21137;-71
2022/10/10 02:54:25;;;;;;;25.67;21.38;;;;;;;;;;5041328;28;20209;-71
2022/10/10 02:56:52;;;;;;;21.38;19.10;;;;;;;;;;5041522;28;20233;-71
2022/10/10 02:59:18;;;;;;;22.42;19.63;;;;;;;;;;5040412;28;20258;-71
2022/10/10 03:01:45;;;;;;;21.98;19.30;;;;;;;;;;5040200;28;20253;-71
2022/10/10 03:04:12;;;;;;;22.80;20.38;;;;;;;;;;5041038;28;20275;-71
2022/10/10 03:06:38;;;;;;;21.55;19.35;;;;;;;;;;5042518;28;20291;-71
2022/10/10 03:09:06;;;;;;;24.10;20.95;;;;;;;;;;5041443;28;20820;-71
2022/10/10 03:11:32;;;;;;;24.90;20.85;;;;;;;;;;5041357;28;20282;-71
2022/10/10 03:13:59;;;;;;;23.17;20.77;;;;;;;;;;5042475;28;20230;-72
2022/10/10 03:16:25;;;;;;;23.67;20.73;;;;;;;;;;5042820;28;20202;-71
2022/10/10 03:18:52;;;;;;;23.88;21.48;;;;;;;;;;5041735;28;20252;-72
2022/10/10 03:21:18;;;;;;;25.70;22.85;;;;;;;;;;5040898;28;20211;-71
2022/10/10 03:23:45;;;;;;;25.52;20.83;;;;;;;;;;5039417;28;20199;-72
2022/10/10 03:26:13;;;;;;;23.40;20.98;;;;;;;;;;5040521;28;20222;-71
2022/10/10 03:28:39;;;;;;;23.83;21.35;;;;;;;;;;5039593;28;20230;-72
2022/10/10 03:31:06;;;;;;;25.42;20.90;;;;;;;;;;5037900;28;20306;-72
2022/10/10 03:33:33;;;;;;;22.40;19.65;;;;;;;;;;5041235;28;20292;-72
2022/10/10 03:36:00;;;;;;;25.33;19.92;;;;;;;;;;5041685;28;20202;-72
2022/10/10 03:38:26;;;;;;;23.25;20.90;;;;;;;;;;5040283;28;20256;-71
2022/10/10 03:40:53;;;;;;;23.88;20.10;;;;;;;;;;5038487;28;20206;-71
2022/10/10 03:43:21;;;;;;;21.88;19.55;;;;;;;;;;5040745;28;20198;-72
2022/10/10 03:45:47;;;;;;;20.65;18.55;;;;;;;;;;5040952;28;20575;-72
2022/10/10 03:48:14;;;;;;;36.75;20.88;;;;;;;;;;5038494;28;21067;-73
2022/10/10 03:50:40;;;;;;;27.20;18.92;;;;;;;;;;5038691;28;20267;-72
2022/10/10 03:53:07;;;;;;;24.58;20.50;;;;;;;;;;5040033;28;20315;-72
2022/10/10 03:55:34;;;;;;;27.10;19.85;;;;;;;11.81;nan;95918.75;5038087;28;20202;-73
2022/10/10 03:58:00;;;;;;;24.67;20.98;;;;;;;;;;5040707;28;20221;-72
2022/10/10 04:00:28;;;;;;;52.60;33.47;;;;;;;;;;5040484;28;20194;-73
2022/10/10 04:02:55;;;;;;;41.13;27.90;;;;;;;;;;5036976;28;20299;-73
2022/10/10 04:05:21;;;;;;;32.10;23.23;;;;;;;;;;5040494;28;20230;-73
2022/10/10 04:07:48;;;;;;;25.35;20.67;;;;;;;;;;5039910;28;21339;-73
2022/10/10 04:10:14;;;;;;;25.58;21.15;;;;;;;;;;5039391;28;20210;-72
2022/10/10 04:12:41;;;;;;;28.33;22.15;;;;;;;;;;5039650;28;20226;-72
2022/10/10 04:15:08;;;;;;;28.55;22.23;;;;;;;;;;5039623;28;20209;-72
2022/10/10 04:17:37;;;;;;;32.65;26.25;;;;;;;;;;5039649;28;22218;-72
2022/10/10 04:20:04;;;;;;;72.32;43.42;;;;;;;;;;5039879;28;20210;-73
2022/10/10 04:22:30;;;;;;;36.35;25.90;;;;;;;;;;5037574;28;20264;-73
2022/10/10 04:24:57;;;;;;;33.03;23.60;;;;;;;;;;5039369;28;20201;-73
2022/10/10 04:27:23;;;;;;;34.10;22.98;;;;;;;;;;5039951;28;20202;-72
2022/10/10 04:29:50;;;;;;;75.85;43.85;;;;;;;;;;5038675;28;20202;-73
2022/10/10 04:32:16;;;;;;;54.10;37.40;;;;;;;;;;5036743;28;20230;-73
2022/10/10 04:34:44;;;;;;;50.67;34.33;;;;;;;;;;5038391;28;20198;-73
2022/10/10 04:37:11;;;;;;;36.80;23.90;;;;;;;;;;5038727;28;20260;-73
2022/10/10 04:39:38;;;;;;;32.97;23.73;;;;;;;;;;5038703;28;20207;-71
2022/10/10 04:42:04;;;;;;;41.15;29.17;;;;;;;;;;5036991;28;20213;-73
2022/10/10 04:44:31;;;;;;;44.08;31.77;;;;;;;;;;5038725;28;20206;-73
2022/10/10 04:46:57;;;;;;;31.27;23.45;;;;;;;;;;5037760;28;20209;-74
2022/10/10 04:49:24;;;;;;;34.63;23.40;;;;;;;;;;5039314;28;20210;-73
2022/10/10 04:51:52;;;;;;;38.70;25.77;;;;;;;;;;5040231;28;20598;-73
2022/10/10 04:54:18;;;;;;;35.78;23.73;;;;;;;;;;5039346;28;20230;-73
2022/10/10 04:56:45;;;;;;;38.10;24.77;;;;;;;;;;5039636;28;20217;-72
2022/10/10 04:59:11;;;;;;;36.13;23.48;;;;;;;;;;5040931;28;20198;-74
2022/10/10 05:01:38;;;;;;;28.38;22.73;;;;;;;;;;5038672;28;20685;-73
2022/10/10 05:04:04;;;;;;;33.17;23.67;;;;;;;;;;5038319;28;20838;-73
2022/10/10 05:06:31;;;;;;;33.17;21.70;;;;;;;;;;5039438;28;20226;-73
2022/10/10 05:08:59;;;;;;;25.92;20.15;;;;;;;;;;5040530;28;20214;-73
2022/10/10 05:11:25;;;;;;;34.78;21.95;;;;;;;;;;5040847;28;20706;-73
2022/10/10 05:13:52;;;;;;;32.97;22.48;;;;;;;;;;5037836;28;20230;-73
2022/10/10 05:16:18;;;;;;;29.75;21.98;;;;;;;;;;5038893;28;20234;-73
2022/10/10 05:18:45;;;;;;;28.05;21.30;;;;;;;;;;5038688;28;20198;-74
2022/10/10 05:21:11;;;;;;;33.55;22.02;;;;;;;;;;5039370;28;21803;-73
2022/10/10 05:23:40;;;;;;;30.88;22.67;;;;;;;;;;5039837;28;21216;-73
2022/10/10 05:26:08;;;;;;;29.73;22.98;;;;;;;;;;5039602;28;20202;-74
2022/10/10 05:28:35;;;;;;;35.08;23.92;;;;;;;;;;5039963;28;20238;-73
2022/10/10 05:31:02;;;;;;;30.20;23.15;;;;;;;;;;5038810;28;20338;-72
2022/10/10 05:33:28;;;;;;;32.47;22.92;;;;;;;;;;5031742;28;20237;-72
2022/10/10 05:36:00;;;;;;;35.65;22.95;;;;;;;;;;5030831;28;20695;-72
2022/10/10 05:38:27;;;;;;;31.38;22.17;;;;;;;;;;5032054;28;20241;-70
2022/10/10 05:40:54;;;;;;;34.50;22.85;;;;;;;;;;5033959;28;20247;-72
2022/10/10 05:43:22;;;;;;;28.52;21.65;;;;;;;;;;5035127;28;20202;-72
2022/10/10 05:45:48;;;;;;;38.88;25.13;;;;;;;;;;5037588;28;20854;-72
2022/10/10 05:48:15;;;;;;;39.88;25.98;;;;;;;;;;5042192;28;20235;-71
2022/10/10 05:50:46;;;;;;;49.72;28.27;;;;;;;;;;5040294;28;20213;-71
2022/10/10 05:53:12;;;;;;;43.65;26.90;;;;;;;;;;5040246;28;20232;-72
2022/10/10 05:55:39;;;;;;;41.83;25.92;;;;;;;;;;5040827;28;20210;-71
2022/10/10 05:58:05;;;;;;;46.67;27.15;;;;;;;;;;5042547;28;20211;-72
2022/10/10 06:00:35;;;;;;;47.20;28.10;;;;;;;;;;5040273;28;20300;-72
2022/10/10 06:03:01;;;;;;;50.72;29.05;;;;;;;;;;5041636;28;20206;-72
2022/10/10 06:05:28;;;;;;;49.58;28.75;;;;;;;;;;5042348;28;20626;-74
2022/10/10 06:07:54;;;;;;;47.78;27.88;;;;;;;;;;5042396;28;20233;-74
2022/10/10 06:10:21;;;;;;;39.40;26.23;;;;;;;;;;5041918;28;20233;-72
2022/10/10 06:12:48;;;;;;;40.22;24.42;;;;;;;;;;5044446;28;20202;-73
2022/10/10 06:15:14;;;;;;;35.47;23.52;;;;;;;;;;5043563;28;20216;-73
2022/10/10 06:17:42;;;;;;;50.88;25.45;;;;;;;;;;5042414;28;20211;-72
2022/10/10 06:20:09;;;;;;;35.88;24.08;;;;;;;;;;5040761;28;20378;-72
2022/10/10 06:22:35;;;;;;;32.88;24.17;;;;;;;;;;5039946;28;21115;-72
2022/10/10 06:25:02;;;;;;;43.85;25.35;;;;;;;;;;5039266;28;20204;-72
2022/10/10 06:27:28;;;;;;;39.05;25.60;;;;;;;;;;5043327;28;20263;-73
2022/10/10 06:29:55;;;;;;;39.33;26.27;;;;;;;;;;5043394;28;20210;-73
2022/10/10 06:32:21;;;;;;;37.22;24.70;;;;;;;;;;5042294;28;20479;-73
2022/10/10 06:34:49;;;;;;;50.75;28.70;;;;;;;;;;5042725;28;20221;-73
2022/10/10 06:37:16;;;;;;;37.03;26.02;;;;;;;;;;5040446;28;20264;-73
2022/10/10 06:39:42;;;;;;;38.25;27.63;;;;;;;;;;5040408;28;20205;-72
2022/10/10 06:42:09;;;;;;;40.67;24.73;;;;;;;;;;5040488;28;20307;-72
2022/10/10 06:44:35;;;;;;;43.70;28.02;;;;;;;;;;5036695;28;20258;-72
2022/10/10 06:47:02;;;;;;;39.47;27.60;;;;;;;;;;5035261;28;20387;-73
2022/10/10 06:49:29;;;;;;;37.10;28.73;;;;;;;;;;5036253;28;20384;-72
2022/10/10 06:51:56;;;;;;;42.42;29.27;;;;;;;;;;5038625;28;20206;-72
2022/10/10 06:54:23;;;;;;;36.05;28.63;;;;;;;;;;5039969;28;20248;-72
2022/10/10 06:56:49;;;;;;;42.95;27.83;;;;;;;;;;5034328;28;20210;-71
2022/10/10 06:59:16;;;;;;;36.55;27.30;;;;;;;;;;5033331;28;20712;-71
2022/10/10 07:01:42;;;;;;;34.53;27.45;;;;;;;;;;5036267;28;20289;-72
2022/10/10 07:04:09;;;;;;;39.85;27.55;;;;;;;;;;5032181;28;20202;-72
2022/10/10 07:06:36;;;;;;;34.17;26.58;;;;;;;;;;5035849;28;20234;-72
2022/10/10 07:09:04;;;;;;;35.97;27.25;;;;;;;;;;5036366;28;21029;-72
2022/10/10 07:11:31;;;;;;;34.03;25.95;;;;;;;;;;5040963;28;20274;-73
2022/10/10 07:13:57;;;;;;;43.67;27.92;;;;;;;;;;5036148;28;20226;-72
2022/10/10 07:16:24;;;;;;;39.40;26.75;;;;;;;;;;5037865;28;20625;-72
2022/10/10 07:18:50;;;;;;;42.40;26.33;;;;;;;;;;5037772;28;20940;-72
2022/10/10 07:21:17;;;;;;;37.42;27.80;;;;;;;;;;5041211;28;20838;-72
2022/10/10 07:23:43;;;;;;;41.75;26.20;;;;;;;;;;5039984;28;20953;-72
2022/10/10 07:26:12;;;;;;;38.83;27.15;;;;;;;;;;5042149;28;20692;-72
2022/10/10 07:28:39;;;;;;;37.17;26.60;;;;;;;;;;5036542;28;20692;-72
2022/10/10 07:31:07;;;;;;;35.70;27.38;;;;;;;;;;5038896;28;20287;-72
2022/10/10 07:33:34;;;;;;;37.83;27.10;;;;;;;;;;5039482;28;20339;-72
2022/10/10 07:36:01;;;;;;;38.25;24.40;;;;;;;;;;5041101;28;20685;-71
2022/10/10 07:38:27;;;;;;;44.78;28.98;;;;;;;;;;5041401;28;20218;-72
2022/10/10 07:40:54;;;;;;;40.08;25.23;;;;;;;;;;5042023;28;20749;-72
2022/10/10 07:43:22;;;;;;;33.65;24.67;;;;;;;;;;5038888;28;20229;-72
2022/10/10 07:45:48;;;;;;;35.38;24.42;;;;;;;;;;5039873;28;21517;-72
2022/10/10 07:48:15;;;;;;;37.47;24.10;;;;;;;;;;5040506;28;20210;-72
2022/10/10 07:50:41;;;;;;;39.10;25.08;;;;;;;;;;5039154;28;20260;-72
2022/10/10 07:53:08;;;;;;;38.55;24.25;;;;;;;;;;5040555;28;20677;-73
2022/10/10 07:55:35;;;;;;;35.20;25.27;;;;;;;;;;5039388;28;20291;-72
2022/10/10 07:58:02;;;;;;;33.65;23.33;;;;;;;;;;5039051;28;20218;-72
2022/10/10 08:00:30;;;;;;;27.38;18.95;;;;;;;;;;5039948;28;20500;-72
2022/10/10 08:02:57;;;;;;;29.55;17.95;;;;;;;;;;5038922;28;20229;-74
2022/10/10 08:05:24;;;;;;;30.13;19.52;;;;;;;;;;5039990;28;20206;-74
2022/10/10 08:07:50;;;;;;;31.77;19.17;;;;;;;;;;5041392;28;20226;-73
2022/10/10 08:10:17;;;;;;;29.42;19.48;;;;;;;;;;5039781;28;20298;-74
2022/10/10 08:12:43;;;;;;;46.25;18.27;;;;;;;;;;5040635;28;20736;-73
2022/10/10 08:15:10;;;;;;;31.05;16.88;;;;;;;;;;5040800;28;20225;-73
2022/10/10 08:17:38;;;;;;;34.58;17.85;;;;;;;;;;5040888;28;20458;-73
2022/10/10 08:20:05;;;;;;;31.15;17.95;;;;;;;;;;5039329;28;20695;-74
2022/10/10 08:22:31;;;;;;;27.15;18.25;;;;;;;;;;5040192;28;20279;-74
2022/10/10 08:24:58;;;;;;;29.50;18.75;;;;;;;;;;5040566;28;20290;-73
2022/10/10 08:27:30;;;;;;;26.92;18.98;;;;;;;;;;5035897;28;20256;-72
2022/10/10 08:29:57;;;;;;;34.95;17.77;;;;;;;;;;5037375;28;20210;-72
2022/10/10 08:32:23;;;;;;;27.20;14.65;;;;;;;;;;5038676;28;20233;-73
2022/10/10 08:34:51;;;;;;;22.58;15.07;;;;;;;;;;5036796;28;20214;-74
2022/10/10 08:37:17;;;;;;;27.70;15.10;;;;;;;;;;5037910;28;20930;-73
2022/10/10 08:39:44;;;;;;;19.02;14.80;;;;;;;;;;5037691;28;20209;-73
2022/10/10 08:42:14;;;;;;;19.98;14.07;;;;;;;;;;5038536;28;20673;-73
2022/10/10 08:44:42;;;;;;;19.73;13.27;;;;;;;;;;5036137;28;20244;-73
2022/10/10 08:47:12;;;;;;;23.42;14.82;;;;;;;;;;5037398;28;20217;-70
2022/10/10 08:49:42;;;;;;;20.88;13.50;;;;;;;;;;5033391;28;20202;-72
2022/10/10 08:52:13;;;;;;;20.02;13.93;;;;;;;;;;5038216;28;20271;-72
2022/10/10 08:54:41;;;;;;;18.50;14.07;;;;;;;;;;5038338;28;20267;-73
2022/10/10 08:57:20;;;;;;;18.00;13.30;;;;;;;;;;5038583;28;20423;-72
2022/10/10 08:59:47;;;;;;;18.38;14.52;;;;;;;;;;5038676;28;20233;-73
2022/10/10 09:02:25;;;;;;;11.75;10.55;;;;;;;;;;5038534;28;20210;-73
2022/10/10 09:04:52;;;;;;;14.35;11.13;;;;;;;;;;5038884;28;20616;-74
2022/10/10 09:07:24;;;;;;;12.35;9.75;;;;;;;;;;5039259;28;20237;-73
2022/10/10 09:09:56;;;;;;;14.30;9.43;;;;;;;;;;5040037;28;20728;-74
2022/10/10 09:12:26;;;;;;;10.48;8.93;;;;;;;;;;5036690;28;22051;-75
2022/10/10 09:14:57;;;;;;;9.50;8.55;;;;;;;;;;5040796;28;20236;-74
2022/10/10 09:17:32;;;;;;;9.88;8.13;;;;;;;;;;5042483;28;20672;-74
2022/10/10 09:20:03;;;;;;;11.73;8.68;;;;;;;;;;5036576;28;20625;-73
2022/10/10 09:22:33;;;;;;;13.82;9.68;;;;;;;;;;5032371;28;20210;-69
2022/10/10 09:25:02;;;;;;;10.52;9.27;;;;;;;;;;5030260;28;20356;-72
2022/10/10 09:27:30;;;;;;;9.30;8.07;;;;;;;;;;5030084;28;20207;-70
2022/10/10 09:30:01;;;;;;;8.45;7.68;;;;;;;;;;5029090;28;20259;-70
2022/10/10 09:32:29;;;;;;;13.23;8.60;;;;;;;;;;5029416;28;20611;-69
2022/10/10 09:34:59;;;;;;;8.65;7.63;;;;;;;;;;5029594;28;20219;-71
2022/10/10 09:37:32;;;;;;;16.17;8.18;;;;;;;;;;5029788;28;20230;-70
2022/10/10 09:40:01;;;;;;;8.65;7.95;;;;;;;;;;5029989;28;20304;-70
2022/10/10 09:42:31;;;;;;;8.48;7.65;;;;;;;;;;5028018;28;20215;-71
2022/10/10 09:44:57;;;;;;;10.60;6.70;;;;;;;;;;5033467;28;20270;-72
2022/10/10 09:47:24;;;;;;;9.30;6.65;;;;;;;;;;5030745;28;20270;-70
2022/10/10 09:49:50;;;;;;;8.98;8.18;;;;;;;;;;5027952;28;20242;-70
2022/10/10 09:52:25;;;;;;;7.90;6.57;;;;;;;;;;5030647;28;20303;-70
2022/10/10 09:54:55;;;;;;;11.52;6.97;;;;;;;;;;5028561;28;20333;-71
2022/10/10 09:57:24;;;;;;;7.15;6.47;;;;;;;;;;5030798;28;20233;-69
2022/10/10 09:59:51;;;;;;;11.43;6.95;;;;;;;;;;5027744;28;20696;-70
2022/10/10 10:02:18;;;;;;;7.28;6.55;;;;;;;;;;5029769;28;20210;-71
2022/10/10 10:04:46;;;;;;;10.90;6.57;;;;;;;;;;5030122;28;20206;-71
2022/10/10 10:07:20;;;;;;;6.55;6.03;;;;;;;;;;5031100;28;20834;-71
2022/10/10 10:09:49;;;;;;;7.10;6.60;;;;;;;;;;5030743;28;20660;-72
2022/10/10 10:12:18;;;;;;;8.57;7.88;;;;;;;;;;5030347;28;20682;-70
2022/10/10 10:14:46;;;;;;;10.88;6.95;;;;;;;;;;5030895;28;20745;-72
2022/10/10 10:17:15;;;;;;;7.97;6.80;;;;;;;;;;5029440;28;20202;-72
2022/10/10 10:19:42;;;;;;;8.02;7.15;;;;;;;;;;5028203;28;20241;-71
2022/10/10 10:22:22;;;;;;;8.63;7.00;;;;;;;;;;5032063;28;20222;-71
2022/10/10 10:24:49;;;;;;;7.47;6.72;;;;;;;;;;5028475;28;20206;-72
2022/10/10 10:27:17;;;;;;;10.52;8.23;;;;;;;;;;5030616;28;20207;-70
2022/10/10 10:29:48;;;;;;;8.57;6.90;;;;;;;;;;5028554;28;20222;-71
2022/10/10 10:32:18;;;;;;;9.88;6.32;;;;;;;;;;5032808;28;20265;-71
2022/10/10 10:35:00;;;;;;;11.73;7.88;;;;;;;;;;5031543;28;20226;-70
2022/10/10 10:37:28;;;;;;;7.00;5.88;;;;;;;;;;5010755;28;20859;-71
2022/10/10 10:40:06;;;;;;;6.25;5.85;;;;;;;;;;5031048;28;20202;-71
2022/10/10 10:42:45;;;;;;;7.75;6.57;;;;;;;;;;5031272;28;20205;-71
2022/10/10 10:45:16;;;;;;;6.70;6.10;;;;;;;;;;5028795;28;20202;-72
2022/10/10 10:47:46;;;;;;;7.88;6.18;;;;;;;;;;5030373;28;20365;-73
2022/10/10 10:50:25;;;;;;;12.90;6.22;;;;;;;;;;5031380;28;20684;-72
2022/10/10 10:52:58;;;;;;;6.70;6.20;;;;;;;;;;5031650;28;20221;-72
2022/10/10 10:55:27;;;;;;;6.35;5.68;;;;;;;;;;5027990;28;20225;-72
2022/10/10 10:58:06;;;;;;;6.85;5.85;;;;;;;;;;5029878;28;20213;-73
2022/10/10 11:00:36;;;;;;;6.82;5.70;;;;;;;;;;5029757;28;20680;-72
2022/10/10 11:03:09;;;;;;;7.63;6.50;;;;;;;;;;5029125;28;20210;-72
2022/10/10 11:05:37;;;;;;;6.65;6.05;;;;;;;;;;5029212;28;20279;-72
2022/10/10 11:08:24;;;;;;;6.78;6.28;;;;;;;;;;5029244;28;20217;-72
2022/10/10 11:10:56;;;;;;;6.43;5.95;;;;;;;;;;5023204;28;20298;-72
2022/10/10 11:13:27;;;;;;;7.20;6.13;;;;;;;;;;5030708;28;20202;-71
2022/10/10 11:15:56;;;;;;;7.03;5.55;;;;;;;;;;5031379;28;20274;-71
2022/10/10 11:18:27;;;;;;;8.30;6.20;;;;;;;;;;5028167;28;20214;-72
2022/10/10 11:20:58;;;;;;;7.20;6.00;;;;;;;;;;5026667;28;20210;-72
2022/10/10 11:23:28;;;;;;;8.15;6.57;;;;;;;;;;5028017;28;20207;-71
2022/10/10 11:25:56;;;;;;;5.82;5.30;;;;;;;;;;5028556;28;20226;-70
2022/10/10 11:28:26;;;;;;;6.70;5.90;;;;;;;;;;5025845;28;20757;-73
2022/10/10 11:30:56;;;;;;;6.90;6.25;;;;;;;;;;5026006;28;20199;-70
2022/10/10 11:33:27;;;;;;;6.32;5.72;;;;;;;;;;5029133;28;20245;-71
2022/10/10 11:35:57;;;;;;;7.47;6.78;;;;;;;;;;5027744;28;21030;-71
2022/10/10 11:38:26;;;;;;;7.15;6.50;;;;;;;;;;5027290;28;20214;-72
2022/10/10 11:40:55;;;;;;;6.40;5.93;;;;;;;;;;5027136;28;20389;-73
2022/10/10 11:43:28;;;;;;;10.90;5.82;;;;;;;;;;5031282;28;20207;-71
2022/10/10 11:46:01;;;;;;;6.80;6.13;;;;;;;19.00;nan;95882.13;5028419;28;21851;-70
2022/10/10 11:48:33;;;;;;;9.57;6.38;;;;;;;;;;5028817;28;20223;-72
2022/10/10 11:51:01;;;;;;;6.47;5.93;;;;;;;;;;5028985;28;20802;-72
2022/10/10 11:53:31;;;;;;;14.80;7.50;;;;;;;;;;5029511;28;20733;-70
2022/10/10 11:56:02;;;;;;;7.28;6.78;;;;;;;;;;5026853;28;20230;-71
2022/10/10 11:58:33;;;;;;;8.13;7.07;;;;;;;;;;5027401;28;20198;-71
2022/10/10 12:01:01;;;;;;;11.02;6.50;;;;;;;;;;5028071;28;20630;-71
2022/10/10 12:03:28;;;;;;;10.63;6.28;;;;;;;;;;5030045;28;20241;-71
2022/10/10 12:05:59;;;;;;;7.43;6.82;;;;;;;;;;5028326;28;20199;-72
2022/10/10 12:08:33;;;;;;;8.90;7.05;;;;;;;;;;5027673;28;20210;-73
2022/10/10 12:11:02;;;;;;;6.72;6.13;;;;;;;;;;5026896;28;20237;-71
2022/10/10 12:13:31;;;;;;;7.03;6.28;;;;;;;;;;5027707;28;20877;-73
2022/10/10 12:16:01;;;;;;;8.27;6.15;;;;;;;;;;5028020;28;21161;-73
2022/10/10 12:18:29;;;;;;;5.65;5.32;;;;;;;;;;5033361;28;22840;-72
2022/10/10 12:21:08;;;;;;;6.10;5.53;;;;;;;;;;5027881;28;20190;-71
2022/10/10 12:23:36;;;;;;;6.65;5.90;;;;;;;;;;5029829;28;20283;-74
2022/10/10 12:26:02;;;;;;;7.47;6.47;;;;;;;;;;5027653;28;20213;-72
2022/10/10 12:28:34;;;;;;;7.28;6.57;;;;;;;;;;5027980;28;20281;-72
2022/10/10 12:31:15;;;;;;;8.85;6.15;;;;;;;;;;5030434;28;20717;-71
2022/10/10 12:34:02;;;;;;;6.80;6.20;;;;;;;;;;5028421;28;20287;-73
2022/10/10 12:36:47;;;;;;;6.00;5.40;;;;;;;;;;5027704;28;20225;-72
2022/10/10 12:39:35;;;;;;;6.50;6.00;;;;;;;;;;5027362;28;21926;-73
2022/10/10 12:42:01;;;;;;;6.82;6.32;;;;;;;;;;5028848;28;20229;-73
2022/10/10 12:44:41;;;;;;;6.40;5.80;;;;;;;;;;5028778;28;20700;-74
2022/10/10 12:47:24;;;;;;;9.95;6.10;;;;;;;;;;5029734;28;20271;-73
2022/10/10 12:49:51;;;;;;;7.25;5.78;;;;;;;;;;5009767;28;20234;-73
2022/10/10 12:52:21;;;;;;;10.02;5.68;;;;;;;;;;5027598;28;20280;-71
2022/10/10 12:54:50;;;;;;;7.25;5.68;;;;;;;;;;5026611;28;21022;-72
2022/10/10 12:57:18;;;;;;;6.88;5.82;;;;;;;;;;5027322;28;20222;-72
2022/10/10 12:59:45;;;;;;;9.18;5.68;;;;;;;;;;5029799;28;20280;-73
2022/10/10 13:02:14;;;;;;;12.55;5.80;;;;;;;;;;5029899;28;20199;-73
2022/10/10 13:04:42;;;;;;;6.78;6.05;;;;;;;;;;5028864;28;20248;-72
2022/10/10 13:07:12;;;;;;;6.90;6.20;;;;;;;;;;5032105;28;20214;-72
2022/10/10 13:09:39;;;;;;;13.02;5.82;;;;;;;;;;5027919;28;20212;-73
2022/10/10 13:12:20;;;;;;;7.45;5.47;;;;;;;;;;5027336;28;20272;-71
2022/10/10 13:14:46;;;;;;;6.80;6.20;;;;;;;;;;5028935;28;20199;-74
2022/10/10 13:17:18;;;;;;;9.23;5.80;;;;;;;;;;5027656;28;20245;-74
2022/10/10 13:19:45;;;;;;;8.95;5.75;;;;;;;;;;5029268;28;20672;-71
2022/10/10 13:22:12;;;;;;;8.02;6.15;;;;;;;;;;5026786;28;20642;-72
2022/10/10 13:24:39;;;;;;;7.47;5.90;;;;;;;;;;5026473;28;20209;-71
2022/10/10 13:27:14;;;;;;;7.28;6.47;;;;;;;;;;5030552;28;20233;-71
2022/10/10 13:29:41;;;;;;;6.55;6.03;;;;;;;;;;5026968;28;20209;-73
2022/10/10 13:32:11;;;;;;;6.82;6.05;;;;;;;;;;5027800;28;20242;-73
2022/10/10 13:34:39;;;;;;;6.90;5.60;;;;;;;;;;5027631;28;20260;-73
2022/10/10 13:37:06;;;;;;;9.65;6.03;;;;;;;;;;5026777;28;20234;-73
2022/10/10 13:39:34;;;;;;;5.75;5.22;;;;;;;;;;5026253;28;20270;-73
2022/10/10 13:42:00;;;;;;;8.70;6.18;;;;;;;;;;5028175;28;20215;-73
2022/10/10 13:44:32;;;;;;;9.93;6.25;;;;;;;;;;5026432;28;20713;-72
2022/10/10 13:46:59;;;;;;;7.05;6.40;;;;;;;;;;5027746;28;20211;-72
2022/10/10 13:49:26;;;;;;;6.32;5.78;;;;;;;;;;5025336;28;20238;-71
2022/10/10 13:52:03;;;;;;;6.05;5.43;;;;;;;;;;5025895;28;20211;-72
2022/10/10 13:54:37;;;;;;;6.88;6.20;;;;;;;;;;5029230;28;20206;-70
2022/10/10 13:57:04;;;;;;;7.05;6.32;;;;;;;;;;5031214;28;20213;-71
2022/10/10 13:59:33;;;;;;;10.23;6.30;;;;;;;;;;5030847;28;20210;-72
2022/10/10 14:02:00;;;;;;;52.88;33.25;;;;;;;;;;5031817;28;20221;-70
2022/10/10 14:04:29;;;;;;;8.63;7.78;;;;;;;;;;5032917;28;20268;-70
2022/10/10 14:06:58;;;;;;;10.10;6.78;;;;;;;;;;5033880;28;20234;-71
2022/10/10 14:09:26;;;;;;;8.95;8.00;;;;;;;;;;5029632;28;20710;-70
2022/10/10 14:11:54;;;;;;;10.93;6.25;;;;;;;;;;5033948;28;20217;-70
2022/10/10 14:14:22;;;;;;;8.18;6.38;;;;;;;;;;5033084;28;20348;-69
2022/10/10 14:16:58;;;;;;;10.80;6.70;;;;;;;;;;5031105;28;20222;-71
2022/10/10 14:19:25;;;;;;;7.68;6.18;;;;;;;;;;5032453;28;20288;-73
2022/10/10 14:21:51;;;;;;;8.68;6.00;;;;;;;;;;5028042;28;20215;-72
2022/10/10 14:24:18;;;;;;;18.88;6.95;;;;;;;;;;5029222;28;20252;-73
2022/10/10 14:26:44;;;;;;;7.35;6.07;;;;;;;;;;5025122;28;20327;-72
2022/10/10 14:29:12;;;;;;;6.60;6.10;;;;;;;;;;5031271;28;22737;-70
2022/10/10 14:31:39;;;;;;;8.10;6.80;;;;;;;;;;5027430;28;20210;-72